Time;durP1;ratioP1;P1;durP2;ratioP2;P2;SDS_P1;SDS_P2;PMS_P1;PMS_P2;Temp;Humidity;BMP_temperature;BMP_pressure;BME280_temperature;BME280_humidity;BME280_pressure;Samples;Min_cycle;Max_cycle;Signal;HPM_P1;HPM_P2
2022/01/01 00:01:17;;;;;;;14.53;9.20;;;;;;;4.49;100.00;96853.22;5072888;28;20040;-74
2022/01/01 00:03:45;;;;;;;15.33;10.00;;;;;;;4.45;100.00;96849.94;5032336;28;20065;-72
2022/01/01 00:06:12;;;;;;;15.23;10.30;;;;;;;4.44;100.00;96842.22;5030882;28;20115;-64
2022/01/01 00:08:39;;;;;;;22.90;12.00;;;;;;;4.40;100.00;96846.78;5031217;28;20045;-65
2022/01/01 00:11:06;;;;;;;18.73;11.23;;;;;;;4.38;100.00;96842.59;5026767;28;20056;-64
2022/01/01 00:13:33;;;;;;;15.77;9.53;;;;;;;4.35;100.00;96848.81;5030242;28;20041;-65
2022/01/01 00:16:00;;;;;;;19.90;11.87;;;;;;;4.38;100.00;96840.81;5029391;28;20046;-66
2022/01/01 00:18:28;;;;;;;18.60;10.00;;;;;;;4.38;100.00;96848.63;5031019;28;20049;-65
2022/01/01 00:20:55;;;;;;;18.67;10.20;;;;;;;4.36;100.00;96840.09;5029647;28;20041;-66
2022/01/01 00:23:22;;;;;;;16.27;9.00;;;;;;;4.36;100.00;96855.72;5031012;28;20033;-65
2022/01/01 00:25:50;;;;;;;17.00;10.23;;;;;;;4.35;100.00;96848.81;5029866;28;20509;-66
2022/01/01 00:28:17;;;;;;;15.13;9.57;;;;;;;4.31;100.00;96844.72;5029666;28;20133;-67
2022/01/01 00:30:44;;;;;;;17.37;8.73;;;;;;;4.32;100.00;96836.00;5029570;28;20049;-65
2022/01/01 00:33:11;;;;;;;16.93;9.87;;;;;;;4.34;100.00;96847.16;5030935;28;20045;-65
2022/01/01 00:35:40;;;;;;;18.07;9.50;;;;;;;4.35;100.00;96842.78;5029370;28;20382;-67
2022/01/01 00:38:08;;;;;;;16.20;9.97;;;;;;;4.37;100.00;96835.69;5028066;28;20064;-68
2022/01/01 00:40:35;;;;;;;16.27;9.53;;;;;;;4.34;100.00;96847.16;5029144;28;20085;-66
2022/01/01 00:43:02;;;;;;;16.03;9.03;;;;;;;4.31;100.00;96844.72;5029845;28;20061;-67
2022/01/01 00:45:29;;;;;;;15.03;9.13;;;;;;;4.31;100.00;96841.28;5029123;28;20048;-67
2022/01/01 00:47:56;;;;;;;13.77;8.73;;;;;;;4.31;100.00;96831.69;5030533;28;20042;-67
2022/01/01 00:50:23;;;;;;;13.13;8.00;;;;;;;4.31;100.00;96830.88;5027128;28;20423;-67
2022/01/01 00:52:52;;;;;;;15.37;9.47;;;;;;;4.35;100.00;96842.78;5029276;28;20096;-67
2022/01/01 00:55:19;;;;;;;15.87;8.83;;;;;;;4.34;100.00;96831.50;5029271;28;20042;-67
2022/01/01 00:57:47;;;;;;;13.10;8.13;;;;;;;4.32;100.00;96833.38;5029347;28;20059;-67
2022/01/01 01:00:14;;;;;;;13.63;9.23;;;;;;;4.31;100.00;96826.47;5027624;28;20049;-66
2022/01/01 01:02:41;;;;;;;15.87;8.70;;;;;;;4.32;100.00;96830.78;5051302;28;20127;-67
2022/01/01 01:05:09;;;;;;;10.83;7.13;;;;;;;4.32;100.00;96834.22;5066459;28;20451;-67
2022/01/01 01:07:36;;;;;;;11.03;6.60;;;;;;;4.34;100.00;96831.50;5067902;28;20512;-67
2022/01/01 01:10:06;;;;;;;11.80;7.00;;;;;;;4.36;100.00;96824.47;5068720;28;20151;-67
2022/01/01 01:12:39;;;;;;;14.57;8.20;;;;;;;4.37;100.00;96823.50;5068537;28;20505;-68
2022/01/01 01:15:09;;;;;;;14.73;8.73;;;;;;;4.38;100.00;96833.00;5062630;28;20076;-68
2022/01/01 01:17:36;;;;;;;11.10;7.37;;;;;;;4.36;100.00;96823.59;5069944;28;20052;-71
2022/01/01 01:20:05;;;;;;;13.90;7.47;;;;;;;4.36;100.00;96816.63;5067288;28;20119;-70
2022/01/01 01:22:32;;;;;;;14.13;7.60;;;;;;;4.36;100.00;96814.03;5048960;28;20072;-72
2022/01/01 01:25:00;;;;;;;15.57;8.37;;;;;;;4.37;100.00;96812.25;5068656;28;20044;-71
2022/01/01 01:27:30;;;;;;;15.50;9.90;;;;;;;4.42;100.00;96818.03;5068386;28;20049;-71
2022/01/01 01:29:58;;;;;;;13.63;7.27;;;;;;;4.41;100.00;96816.34;5067061;28;20045;-71
2022/01/01 01:32:25;;;;;;;17.67;9.97;;;;;;;4.40;100.00;96807.69;5067142;28;20102;-71
2022/01/01 01:34:54;;;;;;;18.87;9.47;;;;;;;4.43;100.00;96809.28;5067059;28;20203;-71
2022/01/01 01:37:21;;;;;;;15.73;8.40;;;;;;;4.39;100.00;96811.22;5070047;28;20123;-72
2022/01/01 01:39:48;;;;;;;13.87;8.27;;;;;;;4.39;100.00;96800.78;5069127;28;20048;-72
2022/01/01 01:42:15;;;;;;;15.97;8.70;;;;;;;4.43;100.00;96804.91;5067976;28;20041;-71
2022/01/01 01:44:47;;;;;;;14.07;7.57;;;;;;;4.39;100.00;96797.38;5066577;28;20853;-70
2022/01/01 01:47:16;;;;;;;76.50;16.37;;;;;;;4.43;100.00;96791.88;5067632;28;20393;-70
2022/01/01 01:49:45;;;;;;;320.13;47.07;;;;;;;4.42;100.00;96805.81;5068046;28;20532;-71
2022/01/01 01:52:12;;;;;;;64.37;18.90;;;;;;;4.41;100.00;96801.56;5067973;28;20044;-71
2022/01/01 01:54:41;;;;;;;18.20;8.30;;;;;;;4.41;100.00;96798.94;5066439;28;20072;-71
2022/01/01 01:57:09;;;;;;;18.50;8.73;;;;;;;4.38;100.00;96793.91;5067654;28;20068;-71
2022/01/01 01:59:36;;;;;;;15.87;8.80;;;;;;;4.39;100.00;96807.78;5067559;28;20537;-71
2022/01/01 02:02:05;;;;;;;17.73;9.03;;;;;;;4.42;100.00;96800.59;5066126;28;20144;-71
2022/01/01 02:04:34;;;;;;;17.03;8.97;;;;;;;4.39;100.00;96798.19;5064550;28;20040;-70
2022/01/01 02:07:02;;;;;;;17.67;9.73;;;;;;;4.40;100.00;96793.81;5066100;28;20055;-72
2022/01/01 02:09:29;;;;;;;16.20;8.83;;;;;;;4.40;100.00;96784.25;5066075;28;20044;-71
2022/01/01 02:11:58;;;;;;;16.27;8.83;;;;;;;4.43;100.00;96793.66;5064260;28;20106;-72
2022/01/01 02:14:36;;;;;;;20.43;9.20;;;;;;;4.40;100.00;96789.47;5069170;28;20124;-70
2022/01/01 02:17:11;;;;;;;17.40;8.57;;;;;;;4.40;100.00;96788.63;5073612;28;20044;-72
2022/01/01 02:19:51;;;;;;;14.27;7.60;;;;;;;4.40;100.00;96788.63;5073682;28;20075;-72
2022/01/01 02:22:20;;;;;;;17.67;7.97;;;;;;;4.40;100.00;96781.66;5073070;28;20056;-71
2022/01/01 02:24:47;;;;;;;15.27;9.60;;;;;;;4.40;100.00;96793.81;5073445;28;20034;-72
2022/01/01 02:27:15;;;;;;;16.10;9.63;;;;;;;4.37;100.00;96775.75;5072916;28;20048;-72
2022/01/01 02:29:42;;;;;;;19.00;10.80;;;;;;;4.36;100.00;96774.09;5073975;28;20545;-72
2022/01/01 02:32:11;;;;;;;16.97;8.57;;;;;;;4.38;100.00;96774.84;5074136;28;20083;-72
2022/01/01 02:34:38;;;;;;;18.83;7.97;;;;;;;4.38;100.00;96765.25;5073409;28;20510;-72
2022/01/01 02:37:06;;;;;;;12.30;7.23;;;;;;;4.38;100.00;96769.66;5073184;28;20062;-72
2022/01/01 02:39:34;;;;;;;16.00;8.57;;;;;;;4.38;100.00;96775.69;5074035;28;20056;-71
2022/01/01 02:42:01;;;;;;;14.40;8.10;;;;;;;4.39;100.00;96766.09;5074566;28;20456;-71
2022/01/01 02:44:29;;;;;;;15.67;7.87;;;;;;;4.37;100.00;96774.00;5072682;28;20086;-71
2022/01/01 02:46:56;;;;;;;12.80;7.77;;;;;;;4.35;100.00;96762.84;5073001;28;20051;-71
2022/01/01 02:49:24;;;;;;;20.00;9.50;;;;;;;4.40;100.00;96757.34;5072592;28;20048;-72
2022/01/01 02:51:51;;;;;;;13.03;6.60;;;;;;;4.37;100.00;96768.81;5072969;28;20051;-72
2022/01/01 02:54:18;;;;;;;15.27;8.53;;;;;;;4.38;100.00;96765.25;5072739;28;20126;-70
2022/01/01 02:56:48;;;;;;;15.83;8.53;;;;;;;4.38;100.00;96770.47;5072326;28;20135;-71
2022/01/01 02:59:15;;;;;;;14.83;8.17;;;;;;;4.40;100.00;96771.22;5072779;28;20059;-71
2022/01/01 03:01:42;;;;;;;20.23;10.37;;;;;;;4.38;100.00;96778.28;5072196;28;20114;-71
2022/01/01 03:04:09;;;;;;;16.83;9.10;;;;;;;4.39;100.00;96774.72;5074004;28;20037;-71
2022/01/01 03:06:36;;;;;;;18.63;9.97;;;;;;;4.39;100.00;96777.34;5073127;28;20041;-72
2022/01/01 03:09:03;;;;;;;19.07;8.40;;;;;;;4.38;100.00;96780.88;5068805;28;20806;-71
2022/01/01 03:11:30;;;;;;;17.40;8.60;;;;;;;4.40;100.00;96784.25;5072781;28;20052;-70
2022/01/01 03:13:59;;;;;;;16.23;8.27;;;;;;;4.38;100.00;96786.09;5072665;28;20102;-70
2022/01/01 03:16:26;;;;;;;13.67;7.27;;;;;;;4.36;100.00;96772.34;5071208;28;20047;-71
2022/01/01 03:18:53;;;;;;;13.20;8.63;;;;;;;4.39;100.00;96784.34;5072366;28;20120;-71
2022/01/01 03:21:20;;;;;;;12.83;7.43;;;;;;;4.35;100.00;96785.47;5072369;28;20047;-72
2022/01/01 03:23:47;;;;;;;12.93;7.10;;;;;;;4.33;100.00;96788.16;5071477;28;20309;-72
2022/01/01 03:26:14;;;;;;;13.70;7.80;;;;;;;4.32;100.00;96791.69;5072149;28;20123;-72
2022/01/01 03:28:41;;;;;;;15.63;7.70;;;;;;;4.31;100.00;96784.78;5070901;28;20378;-71
2022/01/01 03:31:09;;;;;;;12.50;6.50;;;;;;;4.31;100.00;96795.22;5072234;28;20048;-71
2022/01/01 03:33:37;;;;;;;13.00;8.33;;;;;;;4.33;100.00;96795.97;5072003;28;20101;-71
2022/01/01 03:36:04;;;;;;;14.37;7.77;;;;;;;4.32;100.00;96801.28;5072014;28;20044;-71
2022/01/01 03:38:31;;;;;;;12.53;7.43;;;;;;;4.32;100.00;96801.28;5071860;28;20082;-71
2022/01/01 03:40:58;;;;;;;15.17;7.83;;;;;;;4.31;100.00;96803.03;5071832;28;20051;-71
2022/01/01 03:43:25;;;;;;;14.67;8.00;;;;;;;4.33;100.00;96803.78;5071970;28;20044;-72
2022/01/01 03:45:52;;;;;;;13.37;8.07;;;;;;;4.32;100.00;96798.66;5071803;28;20507;-71
2022/01/01 03:48:21;;;;;;;13.07;7.07;;;;;;;4.33;100.00;96803.78;5072113;28;20036;-72
2022/01/01 03:50:48;;;;;;;14.87;8.17;;;;;;;4.36;100.00;96806.22;5070969;28;20044;-72
2022/01/01 03:53:16;;;;;;;14.13;8.17;;;;;;;4.33;100.00;96807.22;5072502;28;20037;-71
2022/01/01 03:55:43;;;;;;;15.80;8.10;;;;;;;4.34;100.00;96802.84;5071837;28;20067;-71
2022/01/01 03:58:10;;;;;;;12.33;7.17;;;;;;;4.36;100.00;96810.59;5071464;28;20041;-71
2022/01/01 04:00:39;;;;;;;14.33;7.90;;;;;;;4.42;100.00;96810.22;5071650;28;20043;-72
2022/01/01 04:03:11;;;;;;;13.23;8.00;;;;;;;4.38;100.00;96806.94;5071257;28;20048;-72
2022/01/01 04:05:41;;;;;;;12.87;7.27;;;;;;;4.40;100.00;96807.69;5072462;28;20044;-72
2022/01/01 04:08:08;;;;;;;13.83;7.80;;;;;;;4.44;100.00;96801.38;5071385;28;20106;-72
2022/01/01 04:10:36;;;;;;;13.77;8.00;;;;;;;4.43;100.00;96815.34;5071622;28;20432;-72
2022/01/01 04:13:05;;;;;;;14.17;7.67;;;;;;;4.47;100.00;96816.81;5071575;28;20040;-72
2022/01/01 04:15:33;;;;;;;10.40;6.13;;;;;;;4.49;100.00;96808.91;5071618;28;20127;-71
2022/01/01 04:18:04;;;;;;;12.70;7.60;;;;;;;4.51;100.00;96815.69;5071566;28;20044;-71
2022/01/01 04:20:31;;;;;;;12.80;7.20;;;;;;;4.55;100.00;96813.72;5070279;28;20138;-71
2022/01/01 04:22:59;;;;;;;12.43;6.83;;;;;;;4.58;100.00;96817.00;5072178;28;20454;-71
2022/01/01 04:25:27;;;;;;;12.97;7.80;;;;;;;4.60;100.00;96820.34;5071941;28;20040;-71
2022/01/01 04:27:56;;;;;;;13.97;7.07;;;;;;;4.60;100.00;96830.75;5070866;28;20501;-71
2022/01/01 04:30:25;;;;;;;12.73;7.50;;;;;;;4.65;100.00;96822.66;5071173;28;20040;-70
2022/01/01 04:32:52;;;;;;;12.57;8.10;;;;;;;4.67;100.00;96823.38;5070713;28;20032;-70
2022/01/01 04:35:19;;;;;;;11.03;6.87;;;;;;;4.68;100.00;96820.69;5068363;28;20044;-71
2022/01/01 04:37:46;;;;;;;11.83;6.60;;;;;;;4.67;100.00;96836.44;5071014;28;20128;-70
2022/01/01 04:40:14;;;;;;;12.87;7.10;;;;;;;4.69;100.00;96821.53;5070437;28;20049;-70
2022/01/01 04:42:41;;;;;;;13.40;7.83;;;;;;;4.69;100.00;96837.19;5070679;28;20044;-70
2022/01/01 04:45:09;;;;;;;13.73;7.83;;;;;;;4.71;100.00;96828.34;5070480;28;20561;-70
2022/01/01 04:47:36;;;;;;;16.47;8.60;;;;;;;4.70;100.00;96829.28;5070335;28;20040;-70
2022/01/01 04:50:05;;;;;;;15.37;8.60;;;;;;;4.72;100.00;96832.59;5070667;28;20064;-69
2022/01/01 04:52:32;;;;;;;10.87;6.73;;;;;;;4.75;100.00;96835.03;5069342;28;20135;-69
2022/01/01 04:54:59;;;;;;;16.03;7.03;;;;;;;4.76;100.00;96831.47;5069274;28;20133;-69
2022/01/01 04:57:30;;;;;;;12.67;7.70;;;;;;;4.77;100.00;96833.19;5070607;28;20037;-69
2022/01/01 04:59:57;;;;;;;16.43;8.53;;;;;;;4.79;100.00;96839.13;5070395;28;20071;-69
2022/01/01 05:02:26;;;;;;;14.00;8.90;;;;;;;4.78;100.00;96837.44;5069917;28;20135;-69
2022/01/01 05:04:53;;;;;;;22.37;10.60;;;;;;;4.78;100.00;96842.66;5070336;28;20139;-69
2022/01/01 05:07:20;;;;;;;18.40;9.57;;;;;;;4.81;100.00;96842.47;5070294;28;20119;-70
2022/01/01 05:09:47;;;;;;;22.23;10.73;;;;;;;4.80;100.00;96848.63;5070406;28;20052;-69
2022/01/01 05:12:14;;;;;;;21.03;11.87;;;;;;;4.80;100.00;96835.59;5069949;28;20041;-69
2022/01/01 05:14:42;;;;;;;23.90;11.53;;;;;;;4.80;100.00;96848.63;5070066;28;20127;-69
2022/01/01 05:17:10;;;;;;;19.83;9.43;;;;;;;4.79;100.00;96853.94;5070141;28;20052;-70
2022/01/01 05:19:37;;;;;;;22.43;11.20;;;;;;;4.75;100.00;96848.06;5070284;28;20048;-70
2022/01/01 05:22:04;;;;;;;22.17;12.27;;;;;;;4.75;100.00;96855.88;5070158;28;20048;-69
2022/01/01 05:24:31;;;;;;;19.07;10.13;;;;;;;4.75;100.00;96863.72;5070082;28;20554;-70
2022/01/01 05:26:58;;;;;;;21.40;10.57;;;;;;;4.74;100.00;96872.47;5067570;28;20080;-71
2022/01/01 05:29:25;;;;;;;19.93;10.00;;;;;;;4.74;100.00;96859.44;5069921;28;20044;-71
2022/01/01 05:31:53;;;;;;;18.87;9.57;;;;;;;4.70;100.00;96876.19;5069016;28;20071;-71
2022/01/01 05:34:20;;;;;;;25.10;11.73;;;;;;;4.69;100.00;96884.97;5069922;28;20139;-71
2022/01/01 05:36:47;;;;;;;18.90;9.73;;;;;;;4.73;100.00;96885.59;5069737;28;20098;-70
2022/01/01 05:39:14;;;;;;;24.03;11.63;;;;;;;4.73;100.00;96888.19;5069749;28;20064;-70
2022/01/01 05:41:41;;;;;;;23.93;11.80;;;;;;;4.67;100.00;96894.63;5069654;28;20051;-70
2022/01/01 05:44:08;;;;;;;24.10;11.73;;;;;;;4.68;100.00;96892.88;5069469;28;20135;-70
2022/01/01 05:46:35;;;;;;;24.80;12.33;;;;;;;4.67;100.00;96901.59;5069764;28;20040;-70
2022/01/01 05:49:04;;;;;;;26.83;13.53;;;;;;;4.69;100.00;96905.81;5069609;28;20048;-69
2022/01/01 05:51:31;;;;;;;26.97;13.10;;;;;;;4.68;100.00;96904.13;5071772;28;20124;-70
2022/01/01 05:53:58;;;;;;;21.37;12.53;;;;;;;4.67;100.00;96918.09;5073943;28;20029;-69
2022/01/01 05:56:25;;;;;;;18.77;11.47;;;;;;;4.67;100.00;96915.47;5073487;28;20127;-70
2022/01/01 05:58:52;;;;;;;22.67;11.67;;;;;;;4.66;100.00;96916.44;5073794;28;20491;-69
2022/01/01 06:01:19;;;;;;;26.67;12.73;;;;;;;4.66;100.00;96928.59;5073636;28;20165;-68
2022/01/01 06:03:46;;;;;;;29.57;14.83;;;;;;;4.65;100.00;96927.75;5074597;28;20041;-69
2022/01/01 06:06:14;;;;;;;27.27;12.47;;;;;;;4.66;100.00;96926.84;5073635;28;20052;-68
2022/01/01 06:08:41;;;;;;;28.60;14.17;;;;;;;4.70;100.00;96933.56;5073368;28;20123;-69
2022/01/01 06:11:08;;;;;;;34.00;13.53;;;;;;;4.69;100.00;96931.03;5073282;28;20059;-69
2022/01/01 06:13:35;;;;;;;30.57;13.70;;;;;;;4.64;100.00;96939.13;5073455;28;20105;-69
2022/01/01 06:16:02;;;;;;;30.87;13.77;;;;;;;4.65;100.00;96942.59;5073371;28;20131;-68
2022/01/01 06:18:29;;;;;;;29.23;13.53;;;;;;;4.68;100.00;96932.78;5073187;28;20043;-69
2022/01/01 06:20:57;;;;;;;25.40;12.40;;;;;;;4.70;100.00;96945.75;5073213;28;20040;-69
2022/01/01 06:23:28;;;;;;;24.87;11.90;;;;;;;4.68;100.00;96952.84;5073133;28;20454;-68
2022/01/01 06:25:55;;;;;;;22.03;11.53;;;;;;;4.64;100.00;96965.19;5073276;28;20044;-69
2022/01/01 06:28:22;;;;;;;27.03;11.67;;;;;;;4.66;100.00;96971.16;5071985;28;20135;-69
2022/01/01 06:30:49;;;;;;;20.77;10.70;;;;;;;4.63;100.00;96968.75;5073044;28;20044;-68
2022/01/01 06:33:17;;;;;;;21.57;11.33;;;;;;;4.64;100.00;96973.00;5073210;28;20363;-69
2022/01/01 06:35:46;;;;;;;19.10;9.53;;;;;;;4.66;100.00;96972.94;5073208;28;20393;-68
2022/01/01 06:38:14;;;;;;;20.17;10.20;;;;;;;4.67;100.00;96972.84;5073004;28;20398;-67
2022/01/01 06:40:43;;;;;;;16.63;8.90;;;;;;;4.73;100.00;96977.69;5072559;28;20159;-68
2022/01/01 06:43:12;;;;;;;16.80;9.03;;;;;;;4.72;100.00;96980.41;5071831;28;20057;-67
2022/01/01 06:45:40;;;;;;;18.80;9.37;;;;;;;4.78;100.00;96995.66;5072808;28;20048;-69
2022/01/01 06:48:07;;;;;;;12.40;7.60;;;;;;;4.75;100.00;96996.69;5071538;28;20515;-67
2022/01/01 06:50:36;;;;;;;13.93;8.30;;;;;;;4.78;100.00;96991.28;5073308;28;20121;-68
2022/01/01 06:53:04;;;;;;;16.10;7.57;;;;;;;4.80;100.00;96988.59;5073249;28;20059;-67
2022/01/01 06:55:31;;;;;;;12.80;7.03;;;;;;;4.83;100.00;96986.63;5072961;28;20072;-69
2022/01/01 06:57:59;;;;;;;12.03;7.17;;;;;;;4.83;100.00;97002.28;5072678;28;20135;-68
2022/01/01 07:00:26;;;;;;;13.40;7.97;;;;;;;4.86;100.00;96996.06;5072683;28;20552;-69
2022/01/01 07:02:53;;;;;;;15.17;6.87;;;;;;;4.87;100.00;96982.09;5072228;28;20090;-68
2022/01/01 07:05:20;;;;;;;8.57;5.50;;;;;;;4.86;100.00;96999.50;5072274;28;20046;-67
2022/01/01 07:07:47;;;;;;;9.20;5.40;;;;;;;4.89;100.00;97001.06;5072521;28;20040;-68
2022/01/01 07:10:14;;;;;;;10.93;5.73;;;;;;;4.92;100.00;96999.13;5073668;28;20048;-68
2022/01/01 07:12:42;;;;;;;8.47;5.50;;;;;;;4.98;100.00;97006.56;5072284;28;20119;-68
2022/01/01 07:15:11;;;;;;;9.83;6.17;;;;;;;4.99;100.00;97003.06;5072294;28;20050;-69
2022/01/01 07:17:39;;;;;;;10.00;5.37;;;;;;;5.00;100.00;97015.16;5072238;28;20085;-69
2022/01/01 07:20:06;;;;;;;9.27;6.13;;;;;;;5.05;100.00;97004.44;5071956;28;20041;-69
2022/01/01 07:22:39;;;;;;;10.30;6.20;;;;;;;5.02;100.00;97013.31;5072469;28;20044;-68
2022/01/01 07:25:07;;;;;;;10.00;5.90;;;;;;;5.08;100.00;97012.09;5072006;28;20036;-68
2022/01/01 07:27:34;;;;;;;9.53;5.30;;;;;;;5.08;100.00;97014.72;5072245;28;20036;-68
2022/01/01 07:30:01;;;;;;;8.30;5.27;;;;;;;5.05;100.00;97018.31;5068522;28;20305;-68
2022/01/01 07:32:29;;;;;;;12.57;6.27;;;;;;;5.05;100.00;97017.50;5069864;28;20045;-68
2022/01/01 07:34:56;;;;;;;11.17;6.07;;;;;;;5.10;100.00;97026.72;5071263;28;20063;-69
2022/01/01 07:37:23;;;;;;;9.73;4.93;;;;;;;5.09;100.00;97030.25;5070452;28;20048;-69
2022/01/01 07:39:50;;;;;;;7.57;5.17;;;;;;;5.09;100.00;97022.41;5070276;28;20131;-69
2022/01/01 07:42:17;;;;;;;8.40;5.27;;;;;;;5.14;100.00;97024.75;5070420;28;20051;-69
2022/01/01 07:44:44;;;;;;;7.33;5.00;;;;;;;5.15;100.00;97027.28;5071110;28;20128;-69
2022/01/01 07:47:11;;;;;;;8.03;4.83;;;;;;;5.10;100.00;97021.50;5070181;28;20067;-70
2022/01/01 07:49:39;;;;;;;6.77;3.97;;;;;;;5.11;100.00;97037.97;5071328;28;20553;-69
2022/01/01 07:52:07;;;;;;;6.17;4.93;;;;;;;5.13;100.00;97025.69;5069670;28;20123;-69
2022/01/01 07:54:34;;;;;;;6.77;3.80;;;;;;;5.13;100.00;97030.91;5070232;28;20424;-70
2022/01/01 07:57:00;;;;;;;7.23;4.50;;;;;;;5.14;100.00;97035.19;5070039;28;20040;-70
2022/01/01 07:59:27;;;;;;;6.70;4.50;;;;;;;5.15;100.00;97029.03;5069006;28;20051;-70
2022/01/01 08:01:54;;;;;;;7.10;4.77;;;;;;;5.08;100.00;97035.56;5070672;28;20054;-70
2022/01/01 08:04:21;;;;;;;10.13;5.30;;;;;;;5.07;100.00;97042.56;5069668;28;20135;-70
2022/01/01 08:06:50;;;;;;;8.73;4.67;;;;;;;5.08;100.00;97035.56;5069718;28;20051;-69
2022/01/01 08:09:17;;;;;;;8.07;5.27;;;;;;;5.10;100.00;97047.59;5071542;28;20490;-70
2022/01/01 08:11:44;;;;;;;10.80;5.53;;;;;;;5.10;100.00;97042.38;5085605;28;20037;-69
2022/01/01 08:14:11;;;;;;;9.40;6.00;;;;;;;5.14;100.00;97035.19;5069060;28;20040;-70
2022/01/01 08:16:56;;;;;;;9.17;5.43;;;;;;;5.18;100.00;97045.34;5070778;28;20449;-70
2022/01/01 08:19:24;;;;;;;7.67;4.90;;;;;;;5.16;100.00;97052.41;5070104;28;20068;-70
2022/01/01 08:21:52;;;;;;;9.57;5.27;;;;;;;5.22;100.00;97043.38;5069602;28;20041;-69
2022/01/01 08:24:20;;;;;;;9.17;5.33;;;;;;;5.32;100.00;97049.75;5070735;28;20070;-70
2022/01/01 08:26:47;;;;;;;10.37;6.57;;;;;;;5.28;100.00;97049.09;5070009;28;20044;-70
2022/01/01 08:29:14;;;;;;;11.57;6.90;;;;;;;5.30;100.00;97057.66;5069561;28;20075;-68
2022/01/01 08:31:41;;;;;;;11.93;6.73;;;;;;;5.21;100.00;97060.84;5067819;28;20044;-69
2022/01/01 08:34:09;;;;;;;10.53;6.90;;;;;;;5.25;100.00;97059.72;5070918;28;20076;-70
2022/01/01 08:36:36;;;;;;;15.27;7.73;;;;;;;5.37;100.00;97066.78;5071946;28;20503;-70
2022/01/01 08:39:06;;;;;;;14.60;8.13;;;;;;;5.47;100.00;97067.94;5070829;28;20040;-69
2022/01/01 08:41:34;;;;;;;16.53;8.77;;;;;;;5.48;100.00;97068.78;5071017;28;20040;-70
2022/01/01 08:44:00;;;;;;;17.27;9.17;;;;;;;5.40;100.00;97065.75;5069453;28;20048;-70
2022/01/01 08:46:28;;;;;;;17.17;8.60;;;;;;;5.44;100.00;97072.50;5070410;28;20151;-69
2022/01/01 08:48:54;;;;;;;16.40;9.47;;;;;;;5.39;100.00;97074.53;5069942;28;20044;-70
2022/01/01 08:51:23;;;;;;;19.50;9.73;;;;;;;5.36;100.00;97080.78;5070702;28;20126;-69
2022/01/01 08:53:50;;;;;;;19.07;8.97;;;;;;;5.37;100.00;97082.44;5070566;28;20493;-66
2022/01/01 08:56:19;;;;;;;14.23;8.83;;;;;;;5.32;100.00;97081.91;5071621;28;20044;-67
2022/01/01 08:58:46;;;;;;;17.47;9.47;;;;;;;5.44;100.00;97088.16;5070708;28;20059;-66
2022/01/01 09:01:14;;;;;;;14.97;9.03;;;;;;;5.51;100.00;97085.09;5070778;28;20044;-67
2022/01/01 09:03:41;;;;;;;17.60;9.53;;;;;;;5.55;100.00;97094.44;5071999;28;20047;-66
2022/01/01 09:06:09;;;;;;;14.70;8.97;;;;;;;5.52;100.00;97099.81;5070540;28;20037;-67
2022/01/01 09:08:39;;;;;;;14.50;8.20;;;;;;;5.46;100.00;97104.59;5070446;28;20083;-67
2022/01/01 09:11:07;;;;;;;16.53;8.87;;;;;;;5.33;100.00;97112.28;5072798;28;20494;-67
2022/01/01 09:13:41;;;;;;;15.37;8.67;;;;;;;5.30;100.00;97107.25;5071225;28;20048;-69
2022/01/01 09:16:10;;;;;;;17.70;9.17;;;;;;;5.40;100.00;97105.75;5070840;28;20037;-67
2022/01/01 09:18:38;;;;;;;13.87;8.30;;;;;;;5.42;100.00;97103.09;5068635;28;20041;-68
2022/01/01 09:21:05;;;;;;;14.00;8.60;;;;;;;5.44;100.00;97109.91;5067916;28;20393;-69
2022/01/01 09:23:32;;;;;;;13.10;7.57;;;;;;;5.45;100.00;97098.53;5069764;28;20045;-68
2022/01/01 09:26:01;;;;;;;14.70;8.30;;;;;;;5.45;100.00;97090.69;5068930;28;20048;-68
2022/01/01 09:28:29;;;;;;;13.43;7.63;;;;;;;5.49;100.00;97107.84;5065305;28;20144;-68
2022/01/01 09:30:58;;;;;;;12.90;8.57;;;;;;;5.61;100.00;97094.06;5067874;28;20383;-67
2022/01/01 09:33:29;;;;;;;14.47;8.43;;;;;;;5.68;100.00;97108.38;5066841;28;20461;-66
2022/01/01 09:35:56;;;;;;;14.60;9.20;;;;;;;5.70;100.00;97105.69;5065406;28;20401;-68
2022/01/01 09:38:23;;;;;;;15.70;8.80;;;;;;;5.72;100.00;97101.22;5065000;28;20382;-67
2022/01/01 09:40:53;;;;;;;16.53;9.83;;;;;;;5.70;100.00;97098.69;5069697;28;20119;-65
2022/01/01 09:43:21;;;;;;;15.07;9.03;;;;;;;5.67;100.00;97101.50;5070944;28;20089;-64
2022/01/01 09:45:50;;;;;;;16.63;10.17;;;;;;;5.68;100.00;97113.63;5070764;28;20036;-67
2022/01/01 09:48:20;;;;;;;15.83;8.60;;;;;;;5.61;100.00;97107.13;5069391;28;20039;-66
2022/01/01 09:50:49;;;;;;;16.83;9.23;;;;;;;5.58;100.00;97098.63;5069345;28;20048;-66
2022/01/01 09:53:17;;;;;;;19.57;9.47;;;;;;;5.56;100.00;97097.88;5067331;28;20048;-66
2022/01/01 09:55:45;;;;;;;17.17;9.53;;;;;;;5.57;100.00;97100.38;5070289;28;20047;-67
2022/01/01 09:58:12;;;;;;;15.47;9.03;;;;;;;5.61;100.00;97104.50;5068231;28;20040;-68
2022/01/01 10:00:39;;;;;;;13.33;9.00;;;;;;;5.76;100.00;97113.16;5069427;28;20559;-67
2022/01/01 10:03:10;;;;;;;20.90;9.20;;;;;;;5.84;100.00;97103.91;5067824;28;20421;-66
2022/01/01 10:05:57;;;;;;;13.27;8.13;;;;;;;5.85;100.00;97099.53;5068129;28;20044;-65
2022/01/01 10:08:24;;;;;;;12.77;8.43;;;;;;;5.90;100.00;97098.28;5067464;28;20071;-67
2022/01/01 10:10:51;;;;;;;13.50;8.07;;;;;;;5.89;100.00;97101.03;5070298;28;20044;-66
2022/01/01 10:13:20;;;;;;;11.70;7.67;;;;;;;5.92;100.00;97100.81;5064476;28;20629;-68
2022/01/01 10:15:49;;;;;;;13.57;7.80;;;;;;;5.99;100.00;97081.22;5069571;28;20048;-65
2022/01/01 10:18:16;;;;;;;15.60;8.13;;;;;;;6.06;100.00;97091.19;5068565;28;20497;-67
2022/01/01 10:20:44;;;;;;;10.57;7.57;;;;;;;6.08;100.00;97094.53;5067867;28;20053;-66
2022/01/01 10:23:13;;;;;;;12.60;7.03;;;;;;;6.11;100.00;97096.97;5060833;28;20080;-67
2022/01/01 10:28:25;;;;;;;9.77;6.20;;;;;;;6.14;100.00;97083.72;5069626;28;20077;-69
2022/01/01 10:30:52;;;;;;;10.53;6.50;;;;;;;6.16;100.00;97089.66;5067453;28;20125;-67
2022/01/01 10:33:21;;;;;;;10.60;6.67;;;;;;;6.18;100.00;97098.25;5068553;28;20056;-67
2022/01/01 10:35:51;;;;;;;9.87;6.30;;;;;;;6.12;100.00;97103.84;5069315;28;20736;-66
2022/01/01 10:38:22;;;;;;;12.63;7.20;;;;;;;6.06;100.00;97108.63;5068338;28;20036;-67
2022/01/01 10:40:53;;;;;;;9.43;6.03;;;;;;;6.03;100.00;97106.22;5071124;28;20049;-66
2022/01/01 10:43:21;;;;;;;7.90;5.63;;;;;;;5.92;100.00;97106.03;5068198;28;20048;-67
2022/01/01 10:45:48;;;;;;;11.07;6.17;;;;;;;5.90;100.00;97111.34;5072279;28;20044;-68
2022/01/01 10:48:23;;;;;;;10.33;6.73;;;;;;;5.89;100.00;97114.91;5072856;28;20040;-67
2022/01/01 10:50:52;;;;;;;10.67;6.73;;;;;;;5.91;100.00;97110.44;5071164;28;20367;-68
2022/01/01 10:53:24;;;;;;;11.77;6.73;;;;;;;5.90;100.00;97113.16;5072101;28;20055;-67
2022/01/01 10:55:54;;;;;;;12.20;7.60;;;;;;;5.83;100.00;97119.69;5070396;28;20064;-67
2022/01/01 10:58:23;;;;;;;10.20;6.43;;;;;;;5.82;100.00;97124.06;5073895;28;20554;-68
2022/01/01 11:00:51;;;;;;;14.17;7.43;;;;;;;5.82;100.00;97111.00;5071019;28;20071;-68
2022/01/01 11:03:20;;;;;;;13.57;8.00;;;;;;;5.91;100.00;97112.22;5069604;28;20063;-68
2022/01/01 11:05:48;;;;;;;12.47;7.73;;;;;;;5.97;100.00;97104.81;5071504;28;20131;-67
2022/01/01 11:08:17;;;;;;;14.97;8.40;;;;;;;5.93;100.00;97111.16;5071988;28;20068;-69
2022/01/01 11:10:44;;;;;;;14.97;9.20;;;;;;;5.94;100.00;97112.88;5069913;28;20036;-68
2022/01/01 11:13:12;;;;;;;13.70;9.57;;;;;;;5.92;100.00;97106.88;5069392;28;20040;-67
2022/01/01 11:15:39;;;;;;;17.03;8.80;;;;;;;5.97;100.00;97104.81;5071420;28;20132;-68
2022/01/01 11:18:07;;;;;;;17.23;9.07;;;;;;;6.07;100.00;97095.47;5071035;28;20048;-68
2022/01/01 11:20:36;;;;;;;15.80;10.77;;;;;;;6.17;100.00;97107.03;5069525;28;20131;-68
2022/01/01 11:23:06;;;;;;;18.20;10.03;;;;;;;6.11;100.00;97112.63;5070279;28;20052;-71
2022/01/01 11:25:35;;;;;;;15.53;10.13;;;;;;;6.05;100.00;97113.00;5070612;28;20037;-67
2022/01/01 11:28:04;;;;;;;14.17;9.63;;;;;;;6.03;100.00;97109.69;5071325;28;20394;-67
2022/01/01 11:30:32;;;;;;;16.60;11.67;;;;;;;5.94;100.00;97112.88;5071140;28;20036;-67